Αρχική σελίδα
METAR-TAF:

METAR-TAF

Αεροδρόμια :

Redding Municipal Airport

Redding, Καλιφόρνια, Ηνωμένες Πολιτείες Αμερικής

γεωγραφικό πλάτος: 40-30-54N, γεωγραφικό μήκος: 122-17-48W, υψόμετρο: 153 μ

Παρών καιρός

Η αναφορά έγινε 34 λεπτά πριν, στις 18:53 UTC
Άνεμος 3 kt από Ν
Θερμοκρασία 14°C
Υγρασία 41%
Πίεση 1019 hPa
Ορατότητα: 9.7 χλμ
Καθαρός ουρανός
καταχνιά, καπνός

METAR: KRDD 181853Z 17003KT 6SM HZ FU CLR 14/01 A3010 RMK AO2 SLP191 T01390006

Χρόνος: 11:27 (19:27 UTC)

Πρόγνωση Καιρού

Η αναφορά έγινε 1 ώρα και 53 λεπτά πριν, στις 17:34 UTC
Η πρόγνωση ισχύει από τις 18 στις 18 UTC έως τις 19 στις 18 UTC
Άνεμος 3 kt από μεταβλητές κατευθύνσεις
Ορατότητα: 4.8 χλμ
Διάσπαρτα νέφη σε ύψος 5000 πόδια
καταχνιά, καπνός

TAF: KRDD 181734Z 1818/1918 VRB03KT 3SM HZ FU SCT050

Μετεωρολογικές αναφορές και προγνώσεις για περισσότερα από 4000 αεροδρόμια (δελτία METAR και TAF).

Οι διαθέσιμοι σταθμοί απεικονίζονται στο χάρτη με κίτρινες και κόκκινες κουκκίδες.

Μετακινήστε το ποντίκι πάνω από τις κουκκίδες για να δείτε το όνομα του σταθμού.

Στη συνέχεια, κάντε κλικ για να δείτε τις μετεωρολογικές αναφορές και τις προγνώσεις καιρού.

Για να αλλάξετε το χάρτη: κάντε κλικ στα πράσινα κουμπιά με τον μαύρο σταυρό για να ζουμάρετε, στο πράσινο κουμπί με την παύλα για να αφαιρέσετε το ζουμ ή στα πράσινα βέλη για να αντιπαραβάλλετε χάρτες.


METAR-TAF: